createdAt,value
2019-05-23T00:02:12.096Z,9.57
2019-05-23T00:05:01.567Z,9.54
2019-05-23T00:07:50.788Z,9.50
2019-05-23T00:10:40.683Z,9.45
2019-05-23T00:13:51.276Z,9.48
2019-05-23T00:16:23.369Z,9.45
2019-05-23T00:18:53.693Z,9.42
2019-05-23T00:21:25.111Z,9.36
2019-05-23T00:23:59.075Z,9.24
2019-05-23T00:26:30.083Z,9.11
2019-05-23T00:29:09.983Z,8.95
2019-05-23T00:31:38.357Z,8.81
2019-05-23T00:34:10.325Z,8.70
2019-05-23T00:36:42.935Z,8.61
2019-05-23T00:39:15.577Z,8.52
2019-05-23T00:41:46.907Z,8.42
2019-05-23T00:44:23.514Z,8.35
2019-05-23T00:46:54.653Z,8.29
2019-05-23T00:49:27.319Z,8.24
2019-05-23T00:51:57.402Z,8.20
2019-05-23T00:54:28.256Z,8.20
2019-05-23T00:57:02.366Z,8.19
2019-05-23T00:59:35.644Z,8.18
2019-05-23T01:02:12.381Z,8.21
2019-05-23T01:04:46.119Z,8.23
2019-05-23T01:07:17.252Z,8.29
2019-05-23T01:09:48.083Z,8.35
2019-05-23T01:12:18.246Z,8.45
2019-05-23T01:14:48.414Z,8.52
2019-05-23T01:17:20.740Z,8.48
2019-05-23T01:19:52.837Z,8.39
2019-05-23T01:22:23.876Z,8.24
2019-05-23T01:24:55.574Z,8.16
2019-05-23T01:27:25.824Z,8.08
2019-05-23T01:29:58.298Z,8.04
2019-05-23T01:32:31.476Z,8.06
2019-05-23T01:35:02.069Z,8.08
2019-05-23T01:37:32.454Z,8.09
2019-05-23T01:40:07.761Z,8.07
2019-05-23T01:42:44.536Z,8.04
2019-05-23T01:45:17.696Z,8.06
2019-05-23T01:47:49.307Z,8.04
2019-05-23T01:50:23.494Z,8.00
2019-05-23T01:52:54.198Z,8.03
2019-05-23T01:55:24.544Z,8.12
2019-05-23T01:57:55.835Z,8.13
2019-05-23T02:00:30.756Z,8.12
2019-05-23T02:03:01.104Z,8.05
2019-05-23T02:05:33.171Z,7.95
2019-05-23T02:08:04.092Z,7.84
2019-05-23T02:10:34.394Z,7.66
2019-05-23T02:13:04.840Z,7.62
2019-05-23T02:15:34.921Z,7.52
2019-05-23T02:18:06.282Z,7.41
2019-05-23T02:20:37.134Z,7.39
2019-05-23T02:23:07.875Z,7.39
2019-05-23T02:25:39.692Z,7.40
2019-05-23T02:28:10.143Z,7.43
2019-05-23T02:30:40.801Z,7.55
2019-05-23T02:33:12.519Z,7.69
2019-05-23T02:35:47.702Z,7.70
2019-05-23T02:38:27.158Z,7.76
2019-05-23T02:41:01.815Z,7.82
2019-05-23T02:43:35.380Z,7.86
2019-05-23T02:46:09.564Z,7.88
2019-05-23T02:48:43.611Z,7.82
2019-05-23T02:51:28.394Z,7.80
2019-05-23T02:54:01.898Z,7.76
2019-05-23T02:56:38.737Z,7.73
2019-05-23T02:59:39.278Z,7.67
2019-05-23T03:02:37.950Z,7.61
2019-05-23T03:05:14.363Z,7.60
2019-05-23T03:07:45.334Z,7.62
2019-05-23T03:10:18.656Z,7.60
2019-05-23T03:12:49.574Z,7.58
2019-05-23T03:15:25.043Z,7.56
2019-05-23T03:18:00.543Z,7.51
2019-05-23T03:20:30.879Z,7.50
2019-05-23T03:23:04.190Z,7.45
2019-05-23T03:25:38.271Z,7.46
2019-05-23T03:28:14.059Z,7.50
2019-05-23T03:31:26.551Z,7.51
2019-05-23T03:33:39.296Z,7.50
2019-05-23T03:36:10.145Z,7.44
2019-05-23T03:38:41.130Z,7.39
2019-05-23T03:41:15.873Z,7.40
2019-05-23T03:43:48.697Z,7.40
2019-05-23T03:46:23.827Z,7.41
2019-05-23T03:48:54.474Z,7.40
2019-05-23T03:51:25.306Z,7.41
2019-05-23T03:53:56.967Z,7.36
2019-05-23T03:56:28.572Z,7.38
2019-05-23T03:59:00.622Z,7.47
2019-05-23T04:01:47.209Z,7.48
2019-05-23T04:04:07.459Z,7.56
2019-05-23T04:06:38.192Z,7.65
2019-05-23T04:09:09.956Z,7.76
2019-05-23T04:11:40.143Z,7.84
2019-05-23T04:14:13.603Z,7.90
2019-05-23T04:16:43.681Z,7.91
2019-05-23T04:19:13.673Z,7.95
2019-05-23T04:21:48.362Z,7.98
2019-05-23T04:24:21.183Z,8.07
2019-05-23T04:26:58.834Z,8.16
2019-05-23T04:29:29.301Z,8.29
2019-05-23T04:32:07.776Z,8.33
2019-05-23T04:34:33.991Z,8.44
2019-05-23T04:37:04.218Z,8.54
2019-05-23T04:39:34.698Z,8.64
2019-05-23T04:42:05.498Z,8.62
2019-05-23T04:44:43.818Z,8.69
2019-05-23T04:47:10.241Z,8.78
2019-05-23T04:49:40.617Z,8.84
2019-05-23T04:52:11.433Z,8.92
2019-05-23T04:54:42.185Z,8.98
2019-05-23T04:57:14.541Z,9.08
2019-05-23T04:59:44.792Z,9.15
2019-05-23T05:02:25.727Z,9.24
2019-05-23T05:04:48.590Z,9.29
2019-05-23T05:07:19.042Z,9.41
2019-05-23T05:09:50.951Z,9.45
2019-05-23T05:12:21.161Z,9.56
2019-05-23T05:14:52.016Z,9.66
2019-05-23T05:17:22.353Z,9.79
2019-05-23T05:19:52.709Z,9.90
2019-05-23T05:22:22.963Z,10.10
2019-05-23T05:24:56.266Z,10.31
2019-05-23T05:27:26.564Z,10.45
2019-05-23T05:29:56.767Z,10.65
2019-05-23T05:32:43.314Z,10.85
2019-05-23T05:34:59.612Z,11.03
2019-05-23T05:37:33.105Z,11.21
2019-05-23T05:40:04.620Z,11.32
2019-05-23T05:42:38.110Z,11.40
2019-05-23T05:45:10.435Z,11.41
2019-05-23T05:47:41.024Z,11.43
2019-05-23T05:50:12.978Z,11.41
2019-05-23T05:52:43.410Z,11.38
2019-05-23T05:55:13.837Z,11.39
2019-05-23T05:57:44.198Z,11.47
2019-05-23T06:00:21.346Z,11.57
2019-05-23T06:03:03.613Z,11.68
2019-05-23T06:05:34.311Z,11.79
2019-05-23T06:08:06.385Z,11.89
2019-05-23T06:10:36.697Z,11.98
2019-05-23T06:13:06.711Z,12.06
2019-05-23T06:15:36.832Z,12.08
2019-05-23T06:18:07.366Z,12.17
2019-05-23T06:20:43.159Z,12.21
2019-05-23T06:23:13.723Z,12.27
2019-05-23T06:25:43.758Z,12.35
2019-05-23T06:28:15.979Z,12.35
2019-05-23T06:30:46.459Z,12.49
2019-05-23T06:33:23.267Z,12.64
2019-05-23T06:35:51.580Z,12.76
2019-05-23T06:38:21.312Z,12.87
2019-05-23T06:40:51.882Z,12.93
2019-05-23T06:43:22.623Z,13.09
2019-05-23T06:45:53.267Z,13.14
2019-05-23T06:48:24.322Z,13.23
2019-05-23T06:50:54.404Z,13.34
2019-05-23T06:53:24.610Z,13.45
2019-05-23T06:55:54.685Z,13.48
2019-05-23T06:58:26.305Z,13.49
2019-05-23T07:00:57.485Z,13.55
2019-05-23T07:03:41.846Z,13.65
2019-05-23T07:06:00.621Z,13.79
2019-05-23T07:08:33.605Z,13.86
2019-05-23T07:11:03.789Z,13.96
2019-05-23T07:13:35.143Z,14.00
2019-05-23T07:16:05.913Z,14.10
2019-05-23T07:18:36.019Z,14.24
2019-05-23T07:21:07.686Z,14.37
2019-05-23T07:23:38.062Z,14.56
2019-05-23T07:26:08.701Z,14.71
2019-05-23T07:28:38.810Z,14.83
2019-05-23T07:31:08.937Z,15.01
2019-05-23T07:33:39.097Z,15.15
2019-05-23T07:36:09.329Z,15.26
2019-05-23T07:38:39.466Z,15.31
2019-05-23T07:41:10.093Z,15.45
2019-05-23T07:43:40.620Z,15.57
2019-05-23T07:46:10.641Z,15.67
2019-05-23T07:48:41.295Z,15.73
2019-05-23T07:51:11.427Z,15.79
2019-05-23T07:53:44.233Z,15.88
2019-05-23T07:56:16.171Z,16.01
2019-05-23T07:58:46.360Z,16.16
2019-05-23T08:01:18.137Z,16.25
2019-05-23T08:03:51.867Z,16.41
2019-05-23T08:06:22.889Z,16.50
2019-05-23T08:08:53.337Z,16.60
2019-05-23T08:11:23.805Z,16.77
2019-05-23T08:13:54.842Z,16.76
2019-05-23T08:16:24.833Z,16.82
2019-05-23T08:18:55.429Z,16.93
2019-05-23T08:21:25.670Z,17.07
2019-05-23T08:23:55.832Z,17.25
2019-05-23T08:26:27.537Z,17.19
2019-05-23T08:29:24.250Z,17.26
2019-05-23T08:31:30.500Z,17.39
2019-05-23T08:34:01.261Z,17.43
2019-05-23T08:36:31.747Z,17.44
2019-05-23T08:39:03.675Z,17.48
2019-05-23T08:41:34.894Z,17.54
2019-05-23T08:44:06.800Z,17.68
2019-05-23T08:46:37.602Z,17.74
2019-05-23T08:49:08.992Z,17.75
2019-05-23T08:51:39.216Z,17.77
2019-05-23T08:54:09.252Z,17.85
2019-05-23T08:56:39.755Z,17.81
2019-05-23T08:59:10.808Z,17.89
2019-05-23T09:01:40.821Z,18.06
2019-05-23T09:04:11.100Z,18.14
2019-05-23T09:06:42.448Z,18.21
2019-05-23T09:09:28.434Z,18.23
2019-05-23T09:11:45.066Z,18.47
2019-05-23T09:14:15.383Z,18.73
2019-05-23T09:16:45.731Z,18.70
2019-05-23T09:19:16.145Z,18.76
2019-05-23T09:21:46.508Z,18.58
2019-05-23T09:24:16.567Z,18.42
2019-05-23T09:26:46.854Z,18.71
2019-05-23T09:29:18.196Z,18.81
2019-05-23T09:31:48.833Z,18.87
2019-05-23T09:34:19.069Z,18.84
2019-05-23T09:36:49.089Z,18.96
2019-05-23T09:39:20.959Z,19.16
2019-05-23T09:41:53.960Z,19.26
2019-05-23T09:44:23.951Z,19.31
2019-05-23T09:46:53.970Z,19.20
2019-05-23T09:49:24.596Z,19.11
2019-05-23T09:51:59.326Z,19.15
2019-05-23T09:54:26.936Z,19.33
2019-05-23T09:56:57.559Z,19.51
2019-05-23T09:59:27.757Z,19.30
2019-05-23T10:01:59.315Z,19.31
2019-05-23T10:04:29.253Z,19.33
2019-05-23T10:06:59.341Z,19.44
2019-05-23T10:09:29.624Z,19.53
2019-05-23T10:11:59.643Z,19.68
2019-05-23T10:14:37.066Z,19.77
2019-05-23T10:17:07.193Z,19.78
2019-05-23T10:19:37.667Z,19.85
2019-05-23T10:22:08.393Z,19.80
2019-05-23T10:24:38.486Z,19.80
2019-05-23T10:27:13.679Z,19.99
2019-05-23T10:29:43.757Z,20.16
2019-05-23T10:32:14.282Z,20.14
2019-05-23T10:34:44.739Z,20.15
2019-05-23T10:37:16.634Z,20.18
2019-05-23T10:39:49.857Z,20.14
2019-05-23T10:42:21.586Z,20.35
2019-05-23T10:44:51.836Z,20.41
2019-05-23T10:47:21.906Z,20.40
2019-05-23T10:49:52.086Z,20.46
2019-05-23T10:52:22.223Z,20.47
2019-05-23T10:54:52.386Z,20.42
2019-05-23T10:57:23.051Z,20.65
2019-05-23T10:59:53.212Z,20.65
2019-05-23T11:02:26.866Z,20.67
2019-05-23T11:04:55.681Z,20.80
2019-05-23T11:07:25.687Z,20.94
2019-05-23T11:09:55.850Z,20.94
2019-05-23T11:12:26.233Z,20.85
2019-05-23T11:14:56.468Z,20.78
2019-05-23T11:17:26.468Z,20.37
2019-05-23T11:19:56.536Z,20.34
2019-05-23T11:22:26.990Z,20.61
2019-05-23T11:24:59.489Z,20.82
2019-05-23T11:27:29.968Z,20.85
2019-05-23T11:30:00.047Z,20.99
2019-05-23T11:32:30.477Z,21.11
2019-05-23T11:35:00.766Z,21.12
2019-05-23T11:37:30.769Z,21.08
2019-05-23T11:40:00.845Z,21.02
2019-05-23T11:42:30.844Z,21.05
2019-05-23T11:45:02.073Z,21.20
2019-05-23T11:47:32.435Z,21.36
2019-05-23T11:50:05.127Z,21.44
2019-05-23T11:52:35.554Z,21.50
2019-05-23T11:55:09.114Z,21.62
2019-05-23T11:57:39.388Z,21.61
2019-05-23T12:00:12.078Z,21.71
2019-05-23T12:02:43.962Z,21.73
2019-05-23T12:05:18.310Z,21.59
2019-05-23T12:07:48.571Z,21.26
2019-05-23T12:10:19.060Z,21.27
2019-05-23T12:12:49.154Z,21.26
2019-05-23T12:15:24.031Z,21.06
2019-05-23T12:17:54.846Z,21.06
2019-05-23T12:20:25.325Z,21.30
2019-05-23T12:22:55.451Z,21.60
2019-05-23T12:25:27.181Z,21.63
2019-05-23T12:27:57.460Z,21.54
2019-05-23T12:30:27.924Z,21.56
2019-05-23T12:32:57.938Z,21.54
2019-05-23T12:35:28.018Z,21.60
2019-05-23T12:38:02.443Z,21.61
2019-05-23T12:40:29.798Z,21.61
2019-05-23T12:42:59.914Z,21.46
2019-05-23T12:45:29.967Z,21.37
2019-05-23T12:48:07.491Z,21.49
2019-05-23T12:50:39.220Z,21.50
2019-05-23T12:53:11.094Z,21.69
2019-05-23T12:55:42.842Z,21.72
2019-05-23T12:58:12.838Z,21.85
2019-05-23T13:00:45.141Z,22.08
2019-05-23T13:03:15.644Z,22.14
2019-05-23T13:05:46.165Z,22.14
2019-05-23T13:08:19.216Z,22.41
2019-05-23T13:10:49.321Z,22.45
2019-05-23T13:13:19.681Z,22.48
2019-05-23T13:15:49.819Z,22.45
2019-05-23T13:18:20.178Z,22.51
2019-05-23T13:20:50.324Z,22.54
2019-05-23T13:23:21.566Z,22.29
2019-05-23T13:25:52.755Z,22.24
2019-05-23T13:28:23.157Z,21.74
2019-05-23T13:30:53.470Z,21.96
2019-05-23T13:33:26.639Z,22.27
2019-05-23T13:35:56.998Z,22.55
2019-05-23T13:38:27.633Z,22.86
2019-05-23T13:40:57.723Z,23.09
2019-05-23T13:43:28.160Z,23.16
2019-05-23T13:45:58.474Z,23.21
2019-05-23T13:48:29.541Z,23.16
2019-05-23T13:50:59.735Z,23.03
2019-05-23T13:53:30.109Z,23.17
2019-05-23T13:56:03.506Z,23.23
2019-05-23T13:58:33.543Z,23.25
2019-05-23T14:01:08.834Z,23.24
2019-05-23T14:03:35.543Z,22.78
2019-05-23T14:06:07.378Z,22.69
2019-05-23T14:08:37.463Z,22.79
2019-05-23T14:11:07.912Z,22.97
2019-05-23T14:13:38.023Z,22.91
2019-05-23T14:16:09.362Z,23.00
2019-05-23T14:18:40.802Z,23.17
2019-05-23T14:21:10.769Z,23.19
2019-05-23T14:23:40.923Z,22.99
2019-05-23T14:26:11.429Z,22.59
2019-05-23T14:28:41.691Z,22.56
2019-05-23T14:31:15.907Z,22.59
2019-05-23T14:33:50.698Z,22.59
2019-05-23T14:36:34.089Z,22.73
2019-05-23T14:39:09.126Z,22.56
2019-05-23T14:41:46.540Z,22.54
2019-05-23T14:44:16.695Z,22.49
2019-05-23T14:47:04.986Z,22.29
2019-05-23T14:49:43.248Z,22.15
2019-05-23T14:52:30.383Z,21.88
2019-05-23T14:55:02.303Z,21.92
2019-05-23T14:57:33.400Z,21.85
2019-05-23T15:00:05.340Z,21.96
2019-05-23T15:02:36.293Z,22.12
2019-05-23T15:05:09.882Z,22.15
2019-05-23T15:07:39.954Z,22.21
2019-05-23T15:10:10.383Z,22.34
2019-05-23T15:12:41.518Z,22.35
2019-05-23T15:15:11.977Z,22.50
2019-05-23T15:17:41.972Z,22.59
2019-05-23T15:20:12.736Z,22.53
2019-05-23T15:22:42.767Z,22.41
2019-05-23T15:25:16.320Z,22.39
2019-05-23T15:27:46.540Z,22.45
2019-05-23T15:30:17.467Z,22.41
2019-05-23T15:32:47.616Z,22.38
2019-05-23T15:35:17.877Z,22.44
2019-05-23T15:37:47.915Z,22.11
2019-05-23T15:40:18.741Z,22.17
2019-05-23T15:42:51.418Z,21.98
2019-05-23T15:45:21.424Z,21.81
2019-05-23T15:47:51.984Z,21.78
2019-05-23T15:50:24.575Z,21.68
2019-05-23T15:53:08.113Z,21.66
2019-05-23T15:55:42.853Z,21.74
2019-05-23T15:58:16.386Z,21.77
2019-05-23T16:01:03.962Z,21.86
2019-05-23T16:03:44.580Z,22.03
2019-05-23T16:06:19.217Z,22.04
2019-05-23T16:08:49.477Z,21.81
2019-05-23T16:11:19.646Z,21.62
2019-05-23T16:13:49.639Z,21.52
2019-05-23T16:16:19.903Z,21.36
2019-05-23T16:18:50.376Z,21.20
2019-05-23T16:21:21.475Z,21.22
2019-05-23T16:23:51.664Z,21.22
2019-05-23T16:26:21.722Z,21.21
2019-05-23T16:28:52.405Z,21.22
2019-05-23T16:31:22.502Z,21.23
2019-05-23T16:33:52.581Z,21.22
2019-05-23T16:36:22.649Z,21.17
2019-05-23T16:38:52.724Z,21.16
2019-05-23T16:41:22.812Z,21.28
2019-05-23T16:43:53.075Z,21.26
2019-05-23T16:46:23.234Z,21.11
2019-05-23T16:48:54.137Z,21.20
2019-05-23T16:51:25.891Z,21.22
2019-05-23T16:53:56.684Z,21.12
2019-05-23T16:56:44.036Z,21.15
2019-05-23T16:59:18.448Z,21.19
2019-05-23T17:02:06.424Z,21.10
2019-05-23T17:04:43.999Z,21.01
2019-05-23T17:07:27.910Z,20.91
2019-05-23T17:10:08.872Z,20.91
2019-05-23T17:12:41.702Z,20.72
2019-05-23T17:15:25.677Z,20.69
2019-05-23T17:18:03.340Z,20.65
2019-05-23T17:20:40.145Z,20.55
2019-05-23T17:23:12.138Z,20.55
2019-05-23T17:25:43.874Z,20.43
2019-05-23T17:28:31.097Z,20.44
2019-05-23T17:31:05.831Z,20.48
2019-05-23T17:33:37.103Z,20.32
2019-05-23T17:36:07.413Z,20.30
2019-05-23T17:38:37.687Z,20.31
2019-05-23T17:41:08.046Z,20.29
2019-05-23T17:43:38.227Z,20.20
2019-05-23T17:46:10.981Z,20.20
2019-05-23T17:48:44.567Z,20.06
2019-05-23T17:51:15.688Z,20.02
2019-05-23T17:53:53.853Z,19.94
2019-05-23T17:56:25.124Z,19.90
2019-05-23T17:58:55.203Z,19.88
2019-05-23T18:01:27.099Z,19.84
2019-05-23T18:03:57.415Z,19.71
2019-05-23T18:06:27.556Z,19.76
2019-05-23T18:09:00.515Z,19.69
2019-05-23T18:11:30.977Z,19.55
2019-05-23T18:14:01.433Z,19.38
2019-05-23T18:16:31.863Z,19.27
2019-05-23T18:19:04.373Z,19.33
2019-05-23T18:21:35.106Z,19.26
2019-05-23T18:24:06.390Z,19.30
2019-05-23T18:26:36.736Z,19.27
2019-05-23T18:29:09.789Z,19.25
2019-05-23T18:31:41.777Z,19.21
2019-05-23T18:34:11.866Z,19.22
2019-05-23T18:36:42.759Z,19.26
2019-05-23T18:39:16.269Z,19.29
2019-05-23T18:41:46.438Z,19.38
2019-05-23T18:44:17.616Z,19.50
2019-05-23T18:46:55.327Z,19.37
2019-05-23T18:49:25.721Z,19.34
2019-05-23T18:51:59.058Z,19.25
2019-05-23T18:54:31.837Z,19.19
2019-05-23T18:57:02.284Z,19.11
2019-05-23T18:59:33.418Z,19.02
2019-05-23T19:02:03.669Z,18.96
2019-05-23T19:04:36.520Z,18.85
2019-05-23T19:07:11.554Z,18.75
2019-05-23T19:09:44.972Z,18.68
2019-05-23T19:12:15.614Z,18.57
2019-05-23T19:14:45.678Z,18.46
2019-05-23T19:17:15.981Z,18.38
2019-05-23T19:19:46.224Z,18.29
2019-05-23T19:22:16.700Z,18.18
2019-05-23T19:24:47.028Z,18.10
2019-05-23T19:27:17.764Z,17.98
2019-05-23T19:29:47.840Z,17.87
2019-05-23T19:32:18.416Z,17.77
2019-05-23T19:34:48.583Z,17.66
2019-05-23T19:37:18.774Z,17.51
2019-05-23T19:39:52.956Z,17.38
2019-05-23T19:42:23.510Z,17.28
2019-05-23T19:44:53.504Z,17.17
2019-05-23T19:47:28.801Z,17.05
2019-05-23T19:50:00.241Z,16.92
2019-05-23T19:52:30.620Z,16.81
2019-05-23T19:55:00.797Z,16.72
2019-05-23T19:57:32.138Z,16.61
2019-05-23T20:00:06.271Z,16.52
2019-05-23T20:02:45.425Z,16.42
2019-05-23T20:05:29.227Z,16.34
2019-05-23T20:07:59.945Z,16.27
2019-05-23T20:10:31.172Z,16.22
2019-05-23T20:13:01.648Z,16.17
2019-05-23T20:15:34.482Z,16.15
2019-05-23T20:18:06.744Z,16.14
2019-05-23T20:20:39.119Z,16.13
2019-05-23T20:23:11.161Z,16.10
2019-05-23T20:25:41.663Z,16.06
2019-05-23T20:28:13.303Z,16.03
2019-05-23T20:30:47.576Z,15.98
2019-05-23T20:33:17.970Z,15.96
2019-05-23T20:35:48.423Z,15.92
2019-05-23T20:38:20.111Z,15.88
2019-05-23T20:40:53.282Z,15.81
2019-05-23T20:43:23.521Z,15.74
2019-05-23T20:45:53.718Z,15.72
2019-05-23T20:48:27.626Z,15.68
2019-05-23T20:50:58.040Z,15.64
2019-05-23T20:53:28.203Z,15.58
2019-05-23T20:55:58.283Z,15.55
2019-05-23T20:58:28.372Z,15.49
2019-05-23T21:01:00.190Z,15.40
2019-05-23T21:03:35.323Z,15.31
2019-05-23T21:06:05.988Z,15.23
2019-05-23T21:08:39.752Z,15.17
2019-05-23T21:11:10.274Z,15.10
2019-05-23T21:13:40.469Z,15.03
2019-05-23T21:16:10.511Z,15.00
2019-05-23T21:18:40.735Z,14.91
2019-05-23T21:21:11.218Z,14.87
2019-05-23T21:23:41.316Z,14.85
2019-05-23T21:26:13.812Z,14.86
2019-05-23T21:28:46.831Z,14.83
2019-05-23T21:31:18.472Z,14.83
2019-05-23T21:33:48.773Z,14.84
2019-05-23T21:36:18.865Z,14.81
2019-05-23T21:38:49.054Z,14.77
2019-05-23T21:41:19.220Z,14.76
2019-05-23T21:43:50.872Z,14.73
2019-05-23T21:46:20.862Z,14.77
2019-05-23T21:48:51.238Z,14.70
2019-05-23T21:51:21.370Z,14.72
2019-05-23T21:53:51.461Z,14.65
2019-05-23T21:56:21.582Z,14.61
2019-05-23T21:58:51.765Z,14.57
2019-05-23T22:01:25.345Z,14.50
2019-05-23T22:03:57.286Z,14.48
2019-05-23T22:06:43.979Z,14.43
2019-05-23T22:09:14.282Z,14.39
2019-05-23T22:11:44.718Z,14.42
2019-05-23T22:14:15.807Z,14.41
2019-05-23T22:16:45.910Z,14.42
2019-05-23T22:19:17.813Z,14.44
2019-05-23T22:21:48.441Z,14.43
2019-05-23T22:24:19.764Z,14.43
2019-05-23T22:26:49.895Z,14.41
2019-05-23T22:29:20.048Z,14.43
2019-05-23T22:31:50.176Z,14.44
2019-05-23T22:34:22.070Z,14.44
2019-05-23T22:36:53.175Z,14.44
2019-05-23T22:39:24.513Z,14.43
2019-05-23T22:41:54.667Z,14.40
2019-05-23T22:44:24.677Z,14.35
2019-05-23T22:46:54.847Z,14.34
2019-05-23T22:49:24.837Z,14.30
2019-05-23T22:51:54.913Z,14.24
2019-05-23T22:54:24.971Z,14.20
2019-05-23T22:56:55.062Z,14.13
2019-05-23T22:59:25.092Z,14.11
2019-05-23T23:01:55.223Z,14.07
2019-05-23T23:04:25.696Z,14.02
2019-05-23T23:06:55.696Z,13.99
2019-05-23T23:09:28.783Z,13.94
2019-05-23T23:11:59.416Z,13.87
2019-05-23T23:14:29.778Z,13.82
2019-05-23T23:17:00.021Z,13.77
2019-05-23T23:19:30.117Z,13.70
2019-05-23T23:22:00.196Z,13.67
2019-05-23T23:24:30.218Z,13.65
2019-05-23T23:27:00.221Z,13.64
2019-05-23T23:29:30.297Z,13.54
2019-05-23T23:32:04.061Z,13.43
2019-05-23T23:34:34.356Z,13.36
2019-05-23T23:37:04.450Z,13.31
2019-05-23T23:39:34.600Z,13.25
2019-05-23T23:42:06.021Z,13.23
2019-05-23T23:44:35.340Z,13.26
2019-05-23T23:47:24.150Z,13.23
2019-05-23T23:50:12.012Z,13.20
2019-05-23T23:53:03.031Z,13.17
2019-05-23T23:55:50.852Z,13.15
2019-05-23T23:58:20.541Z,13.05
